createdAt,value
2017-10-04T00:01:21.018Z,100525.72
2017-10-04T00:03:47.233Z,100525.77
2017-10-04T00:06:13.633Z,100520.27
2017-10-04T00:08:39.865Z,100523.97
2017-10-04T00:11:06.069Z,100520.95
2017-10-04T00:13:32.247Z,100517.98
2017-10-04T00:15:58.424Z,100515.55
2017-10-04T00:18:24.628Z,100516.64
2017-10-04T00:20:50.866Z,100505.85
2017-10-04T00:23:17.058Z,100510.24
2017-10-04T00:25:43.264Z,100506.51
2017-10-04T00:28:09.514Z,100508.61
2017-10-04T00:30:35.716Z,100503.95
2017-10-04T00:33:01.926Z,100505.96
2017-10-04T00:35:28.112Z,100506.83
2017-10-04T00:37:54.310Z,100509.73
2017-10-04T00:40:20.488Z,100505.81
2017-10-04T00:42:46.682Z,100506.83
2017-10-04T00:45:12.872Z,100501.30
2017-10-04T00:47:39.066Z,100498.02
2017-10-04T00:50:05.252Z,100503.84
2017-10-04T00:52:31.521Z,100502.38
2017-10-04T00:54:57.713Z,100497.77
2017-10-04T00:57:23.911Z,100503.02
2017-10-04T00:59:50.100Z,100491.42
2017-10-04T01:02:16.287Z,100495.48
2017-10-04T01:04:42.544Z,100499.56
2017-10-04T01:07:08.733Z,100502.78
2017-10-04T01:09:34.957Z,100500.11
2017-10-04T01:12:01.158Z,100500.52
2017-10-04T01:14:27.363Z,100501.06
2017-10-04T01:16:53.550Z,100503.98
2017-10-04T01:19:19.802Z,100502.75
2017-10-04T01:21:46.020Z,100497.91
2017-10-04T01:24:12.226Z,100502.97
2017-10-04T01:26:38.433Z,100502.62
2017-10-04T01:29:04.696Z,100501.60
2017-10-04T01:31:30.905Z,100498.97
2017-10-04T01:33:57.109Z,100498.64
2017-10-04T01:36:23.315Z,100503.57
2017-10-04T01:38:49.536Z,100504.17
2017-10-04T01:41:15.733Z,100506.75
2017-10-04T01:43:41.931Z,100509.50
2017-10-04T01:46:08.140Z,100505.86
2017-10-04T01:48:34.369Z,100509.53
2017-10-04T01:51:00.556Z,100509.81
2017-10-04T01:53:26.799Z,100516.02
2017-10-04T01:55:52.999Z,100512.69
2017-10-04T01:58:19.189Z,100509.84
2017-10-04T02:00:45.410Z,100508.09
2017-10-04T02:03:11.622Z,100511.89
2017-10-04T02:05:37.827Z,100527.27
2017-10-04T02:08:04.051Z,100528.23
2017-10-04T02:10:30.258Z,100519.50
2017-10-04T02:12:56.467Z,100513.52
2017-10-04T02:15:22.687Z,100514.33
2017-10-04T02:17:48.917Z,100522.76
2017-10-04T02:20:15.120Z,100515.56
2017-10-04T02:22:41.330Z,100518.95
2017-10-04T02:25:07.518Z,100523.47
2017-10-04T02:27:33.713Z,100514.36
2017-10-04T02:29:59.933Z,100509.65
2017-10-04T02:34:58.642Z,100509.77
2017-10-04T02:37:24.839Z,100511.14
2017-10-04T02:39:51.042Z,100513.62
2017-10-04T02:42:17.234Z,100513.69
2017-10-04T02:44:43.415Z,100507.71
2017-10-04T02:47:09.613Z,100514.79
2017-10-04T02:49:35.822Z,100508.98
2017-10-04T02:52:02.027Z,100504.49
2017-10-04T02:54:28.252Z,100500.58
2017-10-04T02:56:54.455Z,100503.50
2017-10-04T02:59:20.633Z,100507.88
2017-10-04T03:01:46.811Z,100505.31
2017-10-04T03:04:13.004Z,100501.95
2017-10-04T03:06:39.214Z,100502.64
2017-10-04T03:09:05.410Z,100502.38
2017-10-04T03:11:31.596Z,100505.91
2017-10-04T03:13:57.865Z,100505.76
2017-10-04T03:16:24.090Z,100504.70
2017-10-04T03:18:50.336Z,100513.56
2017-10-04T03:21:16.542Z,100516.02
2017-10-04T03:23:42.722Z,100517.81
2017-10-04T03:26:08.913Z,100517.14
2017-10-04T03:28:35.097Z,100515.71
2017-10-04T03:31:01.327Z,100515.40
2017-10-04T03:33:27.521Z,100516.50
2017-10-04T03:35:53.728Z,100516.02
2017-10-04T03:38:19.926Z,100517.58
2017-10-04T03:40:46.111Z,100521.06
2017-10-04T03:43:12.303Z,100520.20
2017-10-04T03:45:38.486Z,100523.50
2017-10-04T03:48:04.685Z,100520.72
2017-10-04T03:50:30.897Z,100522.77
2017-10-04T03:52:57.083Z,100523.05
2017-10-04T03:55:23.296Z,100523.20
2017-10-04T03:57:49.486Z,100531.67
2017-10-04T04:00:15.670Z,100531.03
2017-10-04T04:02:41.850Z,100532.12
2017-10-04T04:05:08.048Z,100533.55
2017-10-04T04:07:34.235Z,100531.56
2017-10-04T04:10:00.424Z,100536.34
2017-10-04T04:12:26.618Z,100546.94
2017-10-04T04:14:52.925Z,100557.67
2017-10-04T04:17:19.104Z,100565.58
2017-10-04T04:19:45.361Z,100577.34
2017-10-04T04:22:11.567Z,100572.41
2017-10-04T04:24:37.753Z,100579.77
2017-10-04T04:27:04.014Z,100569.70
2017-10-04T04:29:30.314Z,100572.37
2017-10-04T04:31:56.498Z,100571.51
2017-10-04T04:34:22.692Z,100568.34
2017-10-04T04:36:48.876Z,100558.30
2017-10-04T04:39:15.057Z,100563.41
2017-10-04T04:41:41.287Z,100560.03
2017-10-04T04:44:07.475Z,100553.89
2017-10-04T04:46:33.679Z,100559.55
2017-10-04T04:48:59.885Z,100557.98
2017-10-04T04:51:26.063Z,100556.44
2017-10-04T04:53:52.289Z,100562.34
2017-10-04T04:56:18.501Z,100560.34
2017-10-04T04:58:44.699Z,100566.84
2017-10-04T05:01:10.882Z,100566.17
2017-10-04T05:03:37.108Z,100571.09
2017-10-04T05:06:03.298Z,100563.87
2017-10-04T05:08:29.513Z,100551.97
2017-10-04T05:10:55.739Z,100548.90
2017-10-04T05:13:21.951Z,100550.84
2017-10-04T05:15:48.227Z,100548.69
2017-10-04T05:18:14.435Z,100560.64
2017-10-04T05:20:40.607Z,100556.11
2017-10-04T05:23:06.828Z,100555.48
2017-10-04T05:25:33.002Z,100554.80
2017-10-04T05:27:59.174Z,100561.27
2017-10-04T05:30:25.530Z,100568.72
2017-10-04T05:32:51.731Z,100564.30
2017-10-04T05:35:17.955Z,100577.88
2017-10-04T05:37:44.140Z,100576.95
2017-10-04T05:40:10.329Z,100580.27
2017-10-04T05:42:36.507Z,100578.02
2017-10-04T05:45:02.679Z,100576.75
2017-10-04T05:47:28.871Z,100593.81
2017-10-04T05:49:55.060Z,100610.47
2017-10-04T05:52:21.249Z,100606.52
2017-10-04T05:54:47.458Z,100597.63
2017-10-04T05:57:13.655Z,100595.13
2017-10-04T05:59:39.848Z,100589.70
2017-10-04T06:02:06.037Z,100595.14
2017-10-04T06:04:32.229Z,100600.47
2017-10-04T06:06:58.415Z,100611.94
2017-10-04T06:09:24.621Z,100623.83
2017-10-04T06:11:50.811Z,100624.48
2017-10-04T06:14:17.005Z,100635.66
2017-10-04T06:16:43.183Z,100632.84
2017-10-04T06:19:09.392Z,100626.98
2017-10-04T06:21:35.570Z,100632.09
2017-10-04T06:24:01.756Z,100634.56
2017-10-04T06:26:27.933Z,100634.41
2017-10-04T06:28:54.121Z,100635.78
2017-10-04T06:31:20.309Z,100630.07
2017-10-04T06:33:46.514Z,100647.06
2017-10-04T06:36:12.714Z,100646.44
2017-10-04T06:38:38.934Z,100649.80
2017-10-04T06:41:05.161Z,100649.81
2017-10-04T06:43:31.350Z,100653.72
2017-10-04T06:45:57.559Z,100650.21
2017-10-04T06:48:23.777Z,100653.05
2017-10-04T06:50:49.966Z,100652.11
2017-10-04T06:53:16.214Z,100652.64
2017-10-04T06:55:42.401Z,100659.06
2017-10-04T06:58:08.603Z,100659.90
2017-10-04T07:00:34.791Z,100660.92
2017-10-04T07:03:01.024Z,100653.50
2017-10-04T07:05:27.220Z,100654.01
2017-10-04T07:07:53.430Z,100656.75
2017-10-04T07:10:19.613Z,100658.20
2017-10-04T07:12:45.823Z,100650.93
2017-10-04T07:15:12.015Z,100652.67
2017-10-04T07:17:38.258Z,100643.67
2017-10-04T07:20:04.446Z,100653.58
2017-10-04T07:22:30.642Z,100649.67
2017-10-04T07:24:56.854Z,100650.94
2017-10-04T07:27:23.054Z,100652.86
2017-10-04T07:29:49.254Z,100653.68
2017-10-04T07:32:15.481Z,100650.07
2017-10-04T07:34:41.677Z,100650.73
2017-10-04T07:37:07.879Z,100645.47
2017-10-04T07:39:34.103Z,100650.83
2017-10-04T07:42:00.286Z,100647.82
2017-10-04T07:44:26.490Z,100653.84
2017-10-04T07:46:52.679Z,100651.88
2017-10-04T07:49:18.898Z,100654.59
2017-10-04T07:51:45.089Z,100646.78
2017-10-04T07:54:11.275Z,100646.89
2017-10-04T07:56:37.479Z,100647.72
2017-10-04T07:59:03.687Z,100645.77
2017-10-04T08:01:29.883Z,100647.80
2017-10-04T08:03:56.180Z,100639.55
2017-10-04T08:06:22.375Z,100637.40
2017-10-04T08:08:48.573Z,100640.80
2017-10-04T08:11:14.776Z,100636.90
2017-10-04T08:13:40.986Z,100638.38
2017-10-04T08:16:07.178Z,100629.00
2017-10-04T08:18:33.355Z,100628.32
2017-10-04T08:20:59.553Z,100627.58
2017-10-04T08:23:25.753Z,100627.71
2017-10-04T08:25:51.939Z,100623.34
2017-10-04T08:28:18.128Z,100619.31
2017-10-04T08:30:44.346Z,100618.55
2017-10-04T08:33:10.530Z,100623.74
2017-10-04T08:35:36.733Z,100621.77
2017-10-04T08:38:02.934Z,100622.69
2017-10-04T08:40:29.163Z,100625.56
2017-10-04T08:42:55.387Z,100621.77
2017-10-04T08:45:21.588Z,100616.13
2017-10-04T08:47:47.776Z,100622.75
2017-10-04T08:50:13.974Z,100621.27
2017-10-04T08:52:40.209Z,100622.36
2017-10-04T08:55:06.406Z,100623.17
2017-10-04T08:57:32.599Z,100620.84
2017-10-04T08:59:58.802Z,100617.52
2017-10-04T09:02:25.003Z,100631.97
2017-10-04T09:04:51.194Z,100618.12
2017-10-04T09:07:17.384Z,100618.67
2017-10-04T09:09:43.601Z,100637.09
2017-10-04T09:12:09.782Z,100631.46
2017-10-04T09:14:35.986Z,100626.73
2017-10-04T09:17:02.181Z,100627.40
2017-10-04T09:19:28.379Z,100629.41
2017-10-04T09:21:54.588Z,100635.05
2017-10-04T09:24:21.816Z,100627.12
2017-10-04T09:26:48.011Z,100637.90
2017-10-04T09:29:14.197Z,100632.84
2017-10-04T09:31:40.383Z,100626.92
2017-10-04T09:34:06.590Z,100626.36
2017-10-04T09:36:32.773Z,100620.19
2017-10-04T09:38:58.967Z,100631.28
2017-10-04T09:41:25.157Z,100618.24
2017-10-04T09:43:51.349Z,100622.55
2017-10-04T09:46:17.552Z,100614.48
2017-10-04T09:48:43.748Z,100611.66
2017-10-04T09:51:09.951Z,100617.81
2017-10-04T09:53:36.151Z,100611.34
2017-10-04T09:56:02.401Z,100614.45
2017-10-04T09:58:28.578Z,100614.45
2017-10-04T10:00:54.762Z,100608.29
2017-10-04T10:03:20.997Z,100610.23
2017-10-04T10:05:47.178Z,100613.09
2017-10-04T10:08:13.379Z,100611.95
2017-10-04T10:10:41.556Z,100604.09
2017-10-04T10:13:05.816Z,100602.73
2017-10-04T10:15:32.011Z,100597.98
2017-10-04T10:20:40.211Z,100594.69
2017-10-04T10:23:06.397Z,100594.38
2017-10-04T10:25:32.617Z,100596.84
2017-10-04T10:27:58.808Z,100590.99
2017-10-04T10:30:24.994Z,100589.33
2017-10-04T10:32:51.185Z,100591.93
2017-10-04T10:35:17.351Z,100596.08
2017-10-04T10:37:43.533Z,100596.37
2017-10-04T10:40:09.754Z,100598.80
2017-10-04T10:42:35.929Z,100586.50
2017-10-04T10:45:02.118Z,100589.13
2017-10-04T10:47:28.314Z,100590.81
2017-10-04T10:49:54.517Z,100593.53
2017-10-04T10:52:20.697Z,100592.03
2017-10-04T10:54:46.883Z,100596.20
2017-10-04T10:57:13.086Z,100593.34
2017-10-04T10:59:39.264Z,100591.25
2017-10-04T11:02:05.430Z,100582.92
2017-10-04T11:04:31.653Z,100585.00
2017-10-04T11:06:57.906Z,100588.67
2017-10-04T11:09:24.091Z,100582.61
2017-10-04T11:11:50.319Z,100581.21
2017-10-04T11:14:16.510Z,100589.11
2017-10-04T11:16:42.750Z,100590.23
2017-10-04T11:19:08.953Z,100590.81
2017-10-04T11:21:35.127Z,100584.38
2017-10-04T11:24:01.298Z,100581.62
2017-10-04T11:26:27.487Z,100580.88
2017-10-04T11:28:53.711Z,100576.19
2017-10-04T11:31:19.890Z,100584.97
2017-10-04T11:33:46.147Z,100579.36
2017-10-04T11:36:12.338Z,100582.34
2017-10-04T11:38:38.529Z,100566.31
2017-10-04T11:41:04.719Z,100582.99
2017-10-04T11:43:30.916Z,100576.68
2017-10-04T11:45:57.099Z,100577.66
2017-10-04T11:48:23.376Z,100578.27
2017-10-04T11:50:49.608Z,100572.66
2017-10-04T11:53:15.800Z,100571.59
2017-10-04T11:55:41.991Z,100573.16
2017-10-04T11:58:08.197Z,100580.02
2017-10-04T12:00:34.393Z,100574.47
2017-10-04T12:03:00.588Z,100575.06
2017-10-04T12:05:26.789Z,100566.09
2017-10-04T12:07:53.205Z,100564.80
2017-10-04T12:10:19.384Z,100572.19
2017-10-04T12:12:45.586Z,100561.17
2017-10-04T12:15:11.825Z,100570.28
2017-10-04T12:17:38.032Z,100571.95
2017-10-04T12:20:04.268Z,100574.23
2017-10-04T12:22:30.821Z,100570.84
2017-10-04T12:24:56.986Z,100573.86
2017-10-04T12:27:23.387Z,100570.62
2017-10-04T12:29:49.570Z,100575.51
2017-10-04T12:32:15.756Z,100569.80
2017-10-04T12:34:41.984Z,100565.53
2017-10-04T12:37:08.158Z,100565.66
2017-10-04T12:39:34.336Z,100571.44
2017-10-04T12:42:00.522Z,100573.20
2017-10-04T12:44:26.707Z,100567.95
2017-10-04T12:46:52.910Z,100562.73
2017-10-04T12:49:19.089Z,100571.36
2017-10-04T12:51:45.318Z,100573.92
2017-10-04T12:54:11.515Z,100572.16
2017-10-04T12:56:37.679Z,100570.91
2017-10-04T12:59:03.844Z,100569.13
2017-10-04T13:01:30.008Z,100566.17
2017-10-04T13:03:56.163Z,100569.67
2017-10-04T13:06:22.322Z,100567.33
2017-10-04T13:08:48.500Z,100562.03
2017-10-04T13:11:14.682Z,100562.28
2017-10-04T13:13:40.864Z,100561.74
2017-10-04T13:16:07.074Z,100563.58
2017-10-04T13:18:33.305Z,100555.41
2017-10-04T13:20:59.574Z,100554.44
2017-10-04T13:23:25.741Z,100561.40
2017-10-04T13:25:51.917Z,100556.33
2017-10-04T13:28:18.072Z,100557.85
2017-10-04T13:30:44.243Z,100549.53
2017-10-04T13:33:10.425Z,100554.17
2017-10-04T13:35:36.600Z,100551.82
2017-10-04T13:38:02.776Z,100554.39
2017-10-04T13:40:28.956Z,100553.56
2017-10-04T13:42:55.137Z,100552.86
2017-10-04T13:45:21.367Z,100551.50
2017-10-04T13:47:47.558Z,100553.02
2017-10-04T13:50:13.734Z,100549.47
2017-10-04T13:52:39.965Z,100543.03
2017-10-04T13:55:06.140Z,100535.77
2017-10-04T13:57:32.369Z,100537.67
2017-10-04T13:59:58.556Z,100528.15
2017-10-04T14:02:24.739Z,100523.53
2017-10-04T14:04:50.938Z,100517.91
2017-10-04T14:07:17.118Z,100520.03
2017-10-04T14:09:43.311Z,100529.19
2017-10-04T14:12:09.517Z,100530.52
2017-10-04T14:14:35.712Z,100526.70
2017-10-04T14:17:01.918Z,100526.56
2017-10-04T14:19:28.088Z,100520.80
2017-10-04T14:21:54.260Z,100520.80
2017-10-04T14:24:20.437Z,100521.13
2017-10-04T14:26:46.614Z,100514.31
2017-10-04T14:29:12.792Z,100515.95
2017-10-04T14:31:38.967Z,100527.00
2017-10-04T14:34:05.160Z,100518.94
2017-10-04T14:36:31.321Z,100514.70
2017-10-04T14:38:57.521Z,100516.63
2017-10-04T14:41:23.693Z,100524.38
2017-10-04T14:43:49.903Z,100526.43
2017-10-04T14:46:16.181Z,100527.11
2017-10-04T14:48:42.392Z,100522.56
2017-10-04T14:51:08.584Z,100523.77
2017-10-04T14:53:34.765Z,100516.40
2017-10-04T14:56:00.943Z,100525.23
2017-10-04T14:58:27.133Z,100527.36
2017-10-04T15:00:53.364Z,100524.66
2017-10-04T15:03:19.540Z,100521.27
2017-10-04T15:05:45.719Z,100524.66
2017-10-04T15:08:11.946Z,100523.47
2017-10-04T15:10:38.117Z,100525.85
2017-10-04T15:13:04.320Z,100535.81
2017-10-04T15:15:30.501Z,100541.80
2017-10-04T15:17:56.741Z,100537.27
2017-10-04T15:20:23.043Z,100547.98
2017-10-04T15:22:49.241Z,100527.29
2017-10-04T15:25:15.455Z,100540.27
2017-10-04T15:27:41.654Z,100542.41
2017-10-04T15:30:07.885Z,100539.72
2017-10-04T15:32:34.069Z,100538.27
2017-10-04T15:35:00.243Z,100544.12
2017-10-04T15:37:26.423Z,100542.34
2017-10-04T15:39:52.616Z,100546.31
2017-10-04T15:42:18.804Z,100552.23
2017-10-04T15:44:44.996Z,100563.45
2017-10-04T15:47:11.188Z,100554.48
2017-10-04T15:49:37.358Z,100558.34
2017-10-04T15:52:03.554Z,100560.95
2017-10-04T15:54:29.782Z,100564.42
2017-10-04T15:56:55.980Z,100560.34
2017-10-04T15:59:22.162Z,100565.44
2017-10-04T16:01:48.351Z,100562.30
2017-10-04T16:04:14.555Z,100552.65
2017-10-04T16:06:40.765Z,100552.52
2017-10-04T16:09:06.955Z,100560.32
2017-10-04T16:11:33.152Z,100550.27
2017-10-04T16:16:25.386Z,100558.55
2017-10-04T16:18:51.603Z,100559.81
2017-10-04T16:21:17.778Z,100564.96
2017-10-04T16:23:43.985Z,100561.44
2017-10-04T16:26:10.315Z,100560.32
2017-10-04T16:28:36.470Z,100560.52
2017-10-04T16:31:02.650Z,100557.59
2017-10-04T16:33:28.813Z,100556.20
2017-10-04T16:35:55.009Z,100559.33
2017-10-04T16:38:21.229Z,100555.23
2017-10-04T16:40:47.424Z,100551.34
2017-10-04T16:43:13.600Z,100557.41
2017-10-04T16:45:40.565Z,100551.30
2017-10-04T16:48:06.751Z,100550.91
2017-10-04T16:50:32.983Z,100557.95
2017-10-04T16:52:59.146Z,100561.22
2017-10-04T16:55:25.327Z,100555.18
2017-10-04T16:57:51.540Z,100558.34
2017-10-04T17:00:17.783Z,100560.53
2017-10-04T17:02:43.969Z,100561.70
2017-10-04T17:05:10.186Z,100559.05
2017-10-04T17:07:36.377Z,100562.87
2017-10-04T17:10:02.571Z,100566.16
2017-10-04T17:12:28.801Z,100565.17
2017-10-04T17:14:54.986Z,100563.75
2017-10-04T17:17:21.201Z,100566.28
2017-10-04T17:19:47.392Z,100565.25
2017-10-04T17:22:13.591Z,100567.20
2017-10-04T17:24:39.863Z,100567.62
2017-10-04T17:27:06.068Z,100567.22
2017-10-04T17:29:32.249Z,100571.44
2017-10-04T17:31:58.429Z,100564.30
2017-10-04T17:34:24.663Z,100568.23
2017-10-04T17:36:50.851Z,100561.52
2017-10-04T17:39:17.047Z,100559.27
2017-10-04T17:41:43.257Z,100568.91
2017-10-04T17:44:09.458Z,100567.38
2017-10-04T17:46:35.678Z,100562.39
2017-10-04T17:49:01.854Z,100562.39
2017-10-04T17:51:28.035Z,100558.47
2017-10-04T17:53:54.252Z,100563.56
2017-10-04T17:56:20.462Z,100561.22
2017-10-04T17:58:46.661Z,100561.63
2017-10-04T18:01:12.840Z,100562.77
2017-10-04T18:03:39.027Z,100566.31
2017-10-04T18:06:05.173Z,100564.67
2017-10-04T18:08:31.357Z,100571.08
2017-10-04T18:10:57.550Z,100569.94
2017-10-04T18:13:23.757Z,100571.92
2017-10-04T18:15:49.934Z,100573.98
2017-10-04T18:18:16.157Z,100581.03
2017-10-04T18:20:42.330Z,100569.33
2017-10-04T18:23:08.528Z,100574.83
2017-10-04T18:25:34.728Z,100575.44
2017-10-04T18:28:00.934Z,100577.19
2017-10-04T18:30:27.157Z,100570.16
2017-10-04T18:32:53.338Z,100570.03
2017-10-04T18:35:19.510Z,100574.87
2017-10-04T18:37:45.727Z,100578.61
2017-10-04T18:40:11.921Z,100576.03
2017-10-04T18:42:38.100Z,100571.01
2017-10-04T18:45:04.346Z,100571.95
2017-10-04T18:47:30.541Z,100578.23
2017-10-04T18:49:56.730Z,100578.81
2017-10-04T18:52:22.934Z,100576.09
2017-10-04T18:54:49.101Z,100576.31
2017-10-04T18:57:15.268Z,100574.22
2017-10-04T18:59:41.455Z,100573.47
2017-10-04T19:02:07.665Z,100575.30
2017-10-04T19:04:33.848Z,100580.56
2017-10-04T19:07:00.019Z,100578.37
2017-10-04T19:09:26.227Z,100578.34
2017-10-04T19:11:52.407Z,100590.72
2017-10-04T19:14:18.616Z,100584.39
2017-10-04T19:16:44.799Z,100587.80
2017-10-04T19:19:10.975Z,100590.69
2017-10-04T19:21:37.173Z,100592.81
2017-10-04T19:24:03.335Z,100594.33
2017-10-04T19:26:29.568Z,100593.61
2017-10-04T19:28:55.775Z,100581.61
2017-10-04T19:31:21.982Z,100593.98
2017-10-04T19:33:48.184Z,100592.29
2017-10-04T19:36:14.349Z,100590.70
2017-10-04T19:38:40.546Z,100592.59
2017-10-04T19:41:06.715Z,100599.78
2017-10-04T19:43:32.923Z,100594.41
2017-10-04T19:45:59.161Z,100593.73
2017-10-04T19:48:25.359Z,100583.58
2017-10-04T19:50:51.530Z,100593.55
2017-10-04T19:53:17.721Z,100594.02
2017-10-04T19:55:43.909Z,100599.63
2017-10-04T19:58:10.127Z,100604.52
2017-10-04T20:00:36.330Z,100594.94
2017-10-04T20:03:02.538Z,100599.95
2017-10-04T20:05:28.712Z,100599.31
2017-10-04T20:07:54.941Z,100595.45
2017-10-04T20:10:21.334Z,100602.67
2017-10-04T20:12:47.536Z,100596.02
2017-10-04T20:15:14.788Z,100589.37
2017-10-04T20:17:40.985Z,100587.27
2017-10-04T20:20:07.177Z,100588.50
2017-10-04T20:22:33.417Z,100585.91
2017-10-04T20:24:59.598Z,100591.39
2017-10-04T20:27:25.788Z,100596.73
2017-10-04T20:29:51.967Z,100591.91
2017-10-04T20:32:18.163Z,100591.28
2017-10-04T20:34:44.373Z,100597.20
2017-10-04T20:37:10.578Z,100595.76
2017-10-04T20:39:36.769Z,100591.33
2017-10-04T20:42:02.947Z,100586.53
2017-10-04T20:44:29.146Z,100590.19
2017-10-04T20:46:55.416Z,100591.89
2017-10-04T20:49:21.588Z,100595.08
2017-10-04T20:51:47.747Z,100597.38
2017-10-04T20:54:13.938Z,100595.73
2017-10-04T20:56:40.109Z,100590.89
2017-10-04T20:59:06.337Z,100597.30
2017-10-04T21:01:32.526Z,100601.66
2017-10-04T21:03:58.707Z,100603.91
2017-10-04T21:06:24.929Z,100605.28
2017-10-04T21:08:51.117Z,100605.23
2017-10-04T21:11:17.322Z,100601.62
2017-10-04T21:13:44.200Z,100599.76
2017-10-04T21:16:10.375Z,100595.98
2017-10-04T21:18:36.609Z,100603.30
2017-10-04T21:21:02.816Z,100599.52
2017-10-04T21:23:29.095Z,100598.30
2017-10-04T21:25:55.297Z,100602.27
2017-10-04T21:28:21.488Z,100593.61
2017-10-04T21:30:47.682Z,100590.02
2017-10-04T21:33:13.877Z,100588.47
2017-10-04T21:35:40.112Z,100589.14
2017-10-04T21:38:06.339Z,100588.16
2017-10-04T21:40:32.545Z,100587.66
2017-10-04T21:42:58.730Z,100583.63
2017-10-04T21:45:24.909Z,100589.85
2017-10-04T21:47:51.102Z,100587.31
2017-10-04T21:50:17.303Z,100579.97
2017-10-04T21:52:43.466Z,100579.46
2017-10-04T21:55:09.666Z,100578.22
2017-10-04T21:57:35.845Z,100579.78
2017-10-04T22:00:02.048Z,100573.43
2017-10-04T22:02:28.246Z,100572.94
2017-10-04T22:04:54.433Z,100572.85
2017-10-04T22:07:20.635Z,100569.88
2017-10-04T22:09:46.825Z,100567.20
2017-10-04T22:12:13.018Z,100556.38
2017-10-04T22:14:39.202Z,100565.17
2017-10-04T22:17:05.432Z,100561.41
2017-10-04T22:19:31.604Z,100561.45
2017-10-04T22:21:57.808Z,100560.92
2017-10-04T22:24:23.989Z,100559.74
2017-10-04T22:26:50.162Z,100556.06
2017-10-04T22:29:16.355Z,100557.08
2017-10-04T22:31:42.554Z,100552.02
2017-10-04T22:34:08.756Z,100552.47
2017-10-04T22:36:34.947Z,100556.06
2017-10-04T22:39:01.118Z,100552.82
2017-10-04T22:41:27.319Z,100546.88
2017-10-04T22:43:53.524Z,100544.30
2017-10-04T22:46:19.700Z,100547.80
2017-10-04T22:48:45.891Z,100556.64
2017-10-04T22:51:12.067Z,100555.86
2017-10-04T22:53:38.310Z,100556.81
2017-10-04T22:56:04.483Z,100553.22
2017-10-04T22:58:30.698Z,100553.85
2017-10-04T23:00:56.884Z,100543.67
2017-10-04T23:03:23.097Z,100547.55
2017-10-04T23:05:49.298Z,100542.66
2017-10-04T23:08:15.475Z,100546.86
2017-10-04T23:10:41.661Z,100543.13
2017-10-04T23:13:07.862Z,100542.94
2017-10-04T23:15:34.033Z,100551.97
2017-10-04T23:18:00.250Z,100537.98
2017-10-04T23:20:26.439Z,100536.67
2017-10-04T23:22:52.619Z,100544.69
2017-10-04T23:25:18.783Z,100532.82
2017-10-04T23:27:44.971Z,100528.40
2017-10-04T23:30:11.164Z,100531.42
2017-10-04T23:32:37.375Z,100523.98
2017-10-04T23:35:03.547Z,100528.40
2017-10-04T23:37:29.753Z,100516.15
2017-10-04T23:39:55.971Z,100511.20
2017-10-04T23:42:22.218Z,100511.86
2017-10-04T23:44:48.399Z,100506.55
2017-10-04T23:47:14.600Z,100496.38
2017-10-04T23:49:40.800Z,100496.52
2017-10-04T23:52:07.009Z,100488.31
2017-10-04T23:54:33.232Z,100483.95
2017-10-04T23:56:59.414Z,100485.13
2017-10-04T23:59:25.610Z,100484.53
